Kim, Colorado
Current Conditions -  °F | °C
As of 9:54 PM on Saturday 22 Nov 2014 (Local Time) from KTAD Reporting Station
Clear Clear  
Wind Chill: 30°   Ceiling: Unl
Heat Index: 37°   Visibility: 10mi
Dew Point: 21°   Wind: 9mph
Humidity: 52%   Direction: 300°WNW
Pressure: 29.63"   Gusts: NA
Location:  37.25°N, 103.35°W
Report Text: KTAD 230454Z AUTO 30008KT 10SM CLR 03/M06 A2963 RMK AO2 SLP008 T00281061
Loading
Personal Weather Stations






























Interactive Weather Map New forecast layout! Learn more

10-Day Weather Forecast

Advertisements
Track Severe Weather on mobile